sensor_id;sensor_type;location;lat;lon;timestamp;P1;durP1;ratioP1;P2;durP2;ratioP2
13607;SDS011;6875;50.852;5.672;2023-02-13T00:01:37;38.43;;;21.93;;
13607;SDS011;6875;50.852;5.672;2023-02-13T00:04:04;38.23;;;22.53;;
13607;SDS011;6875;50.852;5.672;2023-02-13T00:06:30;35.30;;;21.73;;
13607;SDS011;6875;50.852;5.672;2023-02-13T00:08:57;38.97;;;22.30;;
13607;SDS011;6875;50.852;5.672;2023-02-13T00:11:24;37.97;;;22.80;;
13607;SDS011;6875;50.852;5.672;2023-02-13T00:13:51;37.50;;;22.40;;
13607;SDS011;6875;50.852;5.672;2023-02-13T00:16:17;39.57;;;23.00;;
13607;SDS011;6875;50.852;5.672;2023-02-13T00:18:44;37.30;;;22.23;;
13607;SDS011;6875;50.852;5.672;2023-02-13T00:21:11;44.00;;;24.20;;
13607;SDS011;6875;50.852;5.672;2023-02-13T00:23:38;39.90;;;22.20;;
13607;SDS011;6875;50.852;5.672;2023-02-13T00:26:05;39.10;;;22.60;;
13607;SDS011;6875;50.852;5.672;2023-02-13T00:28:34;40.40;;;22.40;;
13607;SDS011;6875;50.852;5.672;2023-02-13T00:31:01;41.83;;;22.67;;
13607;SDS011;6875;50.852;5.672;2023-02-13T00:33:28;42.60;;;23.23;;
13607;SDS011;6875;50.852;5.672;2023-02-13T00:36:00;42.17;;;23.43;;
13607;SDS011;6875;50.852;5.672;2023-02-13T00:38:28;42.77;;;23.77;;
13607;SDS011;6875;50.852;5.672;2023-02-13T00:40:54;44.87;;;23.43;;
13607;SDS011;6875;50.852;5.672;2023-02-13T00:43:21;46.03;;;24.53;;
13607;SDS011;6875;50.852;5.672;2023-02-13T00:45:49;41.87;;;23.70;;
13607;SDS011;6875;50.852;5.672;2023-02-13T00:48:15;42.97;;;22.27;;
13607;SDS011;6875;50.852;5.672;2023-02-13T00:50:42;41.83;;;24.50;;
13607;SDS011;6875;50.852;5.672;2023-02-13T00:53:10;43.07;;;24.23;;
13607;SDS011;6875;50.852;5.672;2023-02-13T00:55:36;45.10;;;23.93;;
13607;SDS011;6875;50.852;5.672;2023-02-13T00:58:03;45.33;;;24.23;;
13607;SDS011;6875;50.852;5.672;2023-02-13T01:00:30;41.53;;;23.17;;
13607;SDS011;6875;50.852;5.672;2023-02-13T01:02:58;40.97;;;23.13;;
13607;SDS011;6875;50.852;5.672;2023-02-13T01:05:25;42.67;;;22.90;;
13607;SDS011;6875;50.852;5.672;2023-02-13T01:07:53;42.73;;;24.13;;
13607;SDS011;6875;50.852;5.672;2023-02-13T01:10:20;43.47;;;23.60;;
13607;SDS011;6875;50.852;5.672;2023-02-13T01:12:47;44.00;;;23.80;;
13607;SDS011;6875;50.852;5.672;2023-02-13T01:15:13;42.47;;;24.23;;
13607;SDS011;6875;50.852;5.672;2023-02-13T01:17:40;52.33;;;23.17;;
13607;SDS011;6875;50.852;5.672;2023-02-13T01:20:08;39.93;;;23.03;;
13607;SDS011;6875;50.852;5.672;2023-02-13T01:22:36;45.77;;;25.53;;
13607;SDS011;6875;50.852;5.672;2023-02-13T01:25:04;41.20;;;23.27;;
13607;SDS011;6875;50.852;5.672;2023-02-13T01:27:31;42.30;;;23.07;;
13607;SDS011;6875;50.852;5.672;2023-02-13T01:29:57;41.90;;;23.57;;
13607;SDS011;6875;50.852;5.672;2023-02-13T01:32:24;46.80;;;24.83;;
13607;SDS011;6875;50.852;5.672;2023-02-13T01:34:51;41.40;;;22.80;;
13607;SDS011;6875;50.852;5.672;2023-02-13T01:37:19;48.30;;;26.17;;
13607;SDS011;6875;50.852;5.672;2023-02-13T01:39:46;43.70;;;24.67;;
13607;SDS011;6875;50.852;5.672;2023-02-13T01:44:47;43.17;;;23.57;;
13607;SDS011;6875;50.852;5.672;2023-02-13T01:47:17;43.80;;;24.37;;
13607;SDS011;6875;50.852;5.672;2023-02-13T01:49:48;48.53;;;24.00;;
13607;SDS011;6875;50.852;5.672;2023-02-13T01:52:15;47.50;;;24.10;;
13607;SDS011;6875;50.852;5.672;2023-02-13T01:54:44;47.43;;;24.47;;
13607;SDS011;6875;50.852;5.672;2023-02-13T01:57:11;45.90;;;24.10;;
13607;SDS011;6875;50.852;5.672;2023-02-13T01:59:41;45.07;;;23.13;;
13607;SDS011;6875;50.852;5.672;2023-02-13T02:02:09;41.53;;;23.37;;
13607;SDS011;6875;50.852;5.672;2023-02-13T02:04:36;44.37;;;23.73;;
13607;SDS011;6875;50.852;5.672;2023-02-13T02:07:06;47.53;;;25.07;;
13607;SDS011;6875;50.852;5.672;2023-02-13T02:09:36;45.87;;;24.40;;
13607;SDS011;6875;50.852;5.672;2023-02-13T02:12:06;47.23;;;24.30;;
13607;SDS011;6875;50.852;5.672;2023-02-13T02:14:34;46.67;;;25.67;;
13607;SDS011;6875;50.852;5.672;2023-02-13T02:17:01;45.20;;;23.97;;
13607;SDS011;6875;50.852;5.672;2023-02-13T02:19:30;44.90;;;26.87;;
13607;SDS011;6875;50.852;5.672;2023-02-13T02:22:12;42.00;;;23.90;;
13607;SDS011;6875;50.852;5.672;2023-02-13T02:30:59;44.20;;;25.23;;
13607;SDS011;6875;50.852;5.672;2023-02-13T02:33:45;47.20;;;25.23;;
13607;SDS011;6875;50.852;5.672;2023-02-13T02:36:21;47.60;;;25.50;;
13607;SDS011;6875;50.852;5.672;2023-02-13T02:38:59;46.67;;;24.20;;
13607;SDS011;6875;50.852;5.672;2023-02-13T02:41:31;45.27;;;25.37;;
13607;SDS011;6875;50.852;5.672;2023-02-13T02:44:13;46.83;;;23.77;;
13607;SDS011;6875;50.852;5.672;2023-02-13T02:46:46;44.03;;;24.50;;
13607;SDS011;6875;50.852;5.672;2023-02-13T02:49:36;46.20;;;24.33;;
13607;SDS011;6875;50.852;5.672;2023-02-13T02:52:22;48.20;;;26.57;;
13607;SDS011;6875;50.852;5.672;2023-02-13T02:54:56;45.67;;;25.90;;
13607;SDS011;6875;50.852;5.672;2023-02-13T02:57:34;43.70;;;24.17;;
13607;SDS011;6875;50.852;5.672;2023-02-13T03:00:21;45.00;;;24.10;;
13607;SDS011;6875;50.852;5.672;2023-02-13T03:03:08;48.27;;;25.23;;
13607;SDS011;6875;50.852;5.672;2023-02-13T03:05:57;45.97;;;24.03;;
13607;SDS011;6875;50.852;5.672;2023-02-13T03:08:37;45.23;;;25.00;;
13607;SDS011;6875;50.852;5.672;2023-02-13T03:11:23;43.47;;;23.93;;
13607;SDS011;6875;50.852;5.672;2023-02-13T03:14:13;45.60;;;25.20;;
13607;SDS011;6875;50.852;5.672;2023-02-13T03:16:42;46.87;;;25.40;;
13607;SDS011;6875;50.852;5.672;2023-02-13T03:19:29;44.07;;;25.20;;
13607;SDS011;6875;50.852;5.672;2023-02-13T03:22:23;47.13;;;25.83;;
13607;SDS011;6875;50.852;5.672;2023-02-13T03:24:57;47.47;;;26.53;;
13607;SDS011;6875;50.852;5.672;2023-02-13T03:27:30;42.70;;;24.23;;
13607;SDS011;6875;50.852;5.672;2023-02-13T03:30:20;50.07;;;26.50;;
13607;SDS011;6875;50.852;5.672;2023-02-13T03:32:54;49.53;;;26.23;;
13607;SDS011;6875;50.852;5.672;2023-02-13T03:35:30;44.60;;;25.37;;
13607;SDS011;6875;50.852;5.672;2023-02-13T03:38:36;47.70;;;25.80;;
13607;SDS011;6875;50.852;5.672;2023-02-13T03:41:09;51.13;;;26.00;;
13607;SDS011;6875;50.852;5.672;2023-02-13T03:43:46;47.97;;;25.47;;
13607;SDS011;6875;50.852;5.672;2023-02-13T03:46:18;52.57;;;26.97;;
13607;SDS011;6875;50.852;5.672;2023-02-13T03:48:45;55.40;;;26.83;;
13607;SDS011;6875;50.852;5.672;2023-02-13T03:51:31;47.77;;;26.27;;
13607;SDS011;6875;50.852;5.672;2023-02-13T03:54:02;48.27;;;27.40;;
13607;SDS011;6875;50.852;5.672;2023-02-13T03:56:31;48.50;;;28.00;;
13607;SDS011;6875;50.852;5.672;2023-02-13T03:59:18;49.47;;;27.00;;
13607;SDS011;6875;50.852;5.672;2023-02-13T04:01:49;47.20;;;28.27;;
13607;SDS011;6875;50.852;5.672;2023-02-13T04:04:21;49.73;;;27.03;;
13607;SDS011;6875;50.852;5.672;2023-02-13T04:06:51;49.73;;;27.77;;
13607;SDS011;6875;50.852;5.672;2023-02-13T04:09:22;54.77;;;28.50;;
13607;SDS011;6875;50.852;5.672;2023-02-13T04:11:51;50.13;;;28.33;;
13607;SDS011;6875;50.852;5.672;2023-02-13T04:14:20;50.43;;;28.47;;
13607;SDS011;6875;50.852;5.672;2023-02-13T04:16:50;47.60;;;26.40;;
13607;SDS011;6875;50.852;5.672;2023-02-13T04:19:18;56.53;;;30.00;;
13607;SDS011;6875;50.852;5.672;2023-02-13T04:21:48;50.47;;;27.43;;
13607;SDS011;6875;50.852;5.672;2023-02-13T04:24:15;54.50;;;29.37;;
13607;SDS011;6875;50.852;5.672;2023-02-13T04:26:43;51.53;;;28.87;;
13607;SDS011;6875;50.852;5.672;2023-02-13T04:29:10;54.60;;;27.97;;
13607;SDS011;6875;50.852;5.672;2023-02-13T04:31:37;52.80;;;28.23;;
13607;SDS011;6875;50.852;5.672;2023-02-13T04:34:04;49.33;;;28.30;;
13607;SDS011;6875;50.852;5.672;2023-02-13T04:36:30;55.37;;;29.57;;
13607;SDS011;6875;50.852;5.672;2023-02-13T04:38:57;58.30;;;28.13;;
13607;SDS011;6875;50.852;5.672;2023-02-13T04:41:24;53.53;;;29.70;;
13607;SDS011;6875;50.852;5.672;2023-02-13T04:43:51;61.63;;;31.53;;
13607;SDS011;6875;50.852;5.672;2023-02-13T04:46:18;61.83;;;30.87;;
13607;SDS011;6875;50.852;5.672;2023-02-13T04:48:45;56.43;;;29.57;;
13607;SDS011;6875;50.852;5.672;2023-02-13T04:51:11;52.10;;;29.43;;
13607;SDS011;6875;50.852;5.672;2023-02-13T04:53:38;56.40;;;30.03;;
13607;SDS011;6875;50.852;5.672;2023-02-13T04:56:05;62.57;;;30.37;;
13607;SDS011;6875;50.852;5.672;2023-02-13T04:58:31;54.40;;;30.00;;
13607;SDS011;6875;50.852;5.672;2023-02-13T05:00:59;55.93;;;29.83;;
13607;SDS011;6875;50.852;5.672;2023-02-13T05:03:26;58.30;;;30.53;;
13607;SDS011;6875;50.852;5.672;2023-02-13T05:05:52;61.20;;;31.37;;
13607;SDS011;6875;50.852;5.672;2023-02-13T05:08:19;55.90;;;28.43;;
13607;SDS011;6875;50.852;5.672;2023-02-13T05:10:46;66.47;;;33.23;;
13607;SDS011;6875;50.852;5.672;2023-02-13T05:13:13;56.53;;;29.67;;
13607;SDS011;6875;50.852;5.672;2023-02-13T05:15:40;66.37;;;31.80;;
13607;SDS011;6875;50.852;5.672;2023-02-13T05:18:08;58.40;;;31.10;;
13607;SDS011;6875;50.852;5.672;2023-02-13T05:20:35;60.70;;;30.83;;
13607;SDS011;6875;50.852;5.672;2023-02-13T05:23:01;62.47;;;31.90;;
13607;SDS011;6875;50.852;5.672;2023-02-13T05:25:45;55.67;;;28.60;;
13607;SDS011;6875;50.852;5.672;2023-02-13T05:28:12;59.80;;;31.03;;
13607;SDS011;6875;50.852;5.672;2023-02-13T05:30:52;68.20;;;32.03;;
13607;SDS011;6875;50.852;5.672;2023-02-13T05:33:20;63.73;;;32.47;;
13607;SDS011;6875;50.852;5.672;2023-02-13T05:35:47;65.47;;;32.20;;
13607;SDS011;6875;50.852;5.672;2023-02-13T05:38:13;59.50;;;31.47;;
13607;SDS011;6875;50.852;5.672;2023-02-13T05:40:40;58.40;;;30.30;;
13607;SDS011;6875;50.852;5.672;2023-02-13T05:43:06;59.77;;;31.03;;
13607;SDS011;6875;50.852;5.672;2023-02-13T05:45:33;67.93;;;32.70;;
13607;SDS011;6875;50.852;5.672;2023-02-13T05:47:59;65.07;;;33.00;;
13607;SDS011;6875;50.852;5.672;2023-02-13T05:50:27;69.23;;;34.87;;
13607;SDS011;6875;50.852;5.672;2023-02-13T05:52:54;59.87;;;30.93;;
13607;SDS011;6875;50.852;5.672;2023-02-13T05:55:20;64.57;;;32.77;;
13607;SDS011;6875;50.852;5.672;2023-02-13T05:57:47;56.70;;;30.20;;
13607;SDS011;6875;50.852;5.672;2023-02-13T06:00:14;59.40;;;30.77;;
13607;SDS011;6875;50.852;5.672;2023-02-13T06:02:41;57.67;;;31.73;;
13607;SDS011;6875;50.852;5.672;2023-02-13T06:05:08;61.23;;;31.43;;
13607;SDS011;6875;50.852;5.672;2023-02-13T06:07:36;65.70;;;31.70;;
13607;SDS011;6875;50.852;5.672;2023-02-13T06:10:02;58.90;;;30.53;;
13607;SDS011;6875;50.852;5.672;2023-02-13T06:12:29;73.70;;;36.00;;
13607;SDS011;6875;50.852;5.672;2023-02-13T06:14:55;67.57;;;33.30;;
13607;SDS011;6875;50.852;5.672;2023-02-13T06:17:22;70.83;;;34.37;;
13607;SDS011;6875;50.852;5.672;2023-02-13T06:19:48;67.57;;;34.07;;
13607;SDS011;6875;50.852;5.672;2023-02-13T06:22:15;66.73;;;32.77;;
13607;SDS011;6875;50.852;5.672;2023-02-13T06:24:43;69.63;;;33.37;;
13607;SDS011;6875;50.852;5.672;2023-02-13T06:27:12;62.70;;;33.27;;
13607;SDS011;6875;50.852;5.672;2023-02-13T06:29:39;62.20;;;31.20;;
13607;SDS011;6875;50.852;5.672;2023-02-13T06:32:05;61.87;;;31.40;;
13607;SDS011;6875;50.852;5.672;2023-02-13T06:34:32;59.83;;;30.47;;
13607;SDS011;6875;50.852;5.672;2023-02-13T06:36:58;65.30;;;32.53;;
13607;SDS011;6875;50.852;5.672;2023-02-13T06:39:25;65.10;;;31.90;;
13607;SDS011;6875;50.852;5.672;2023-02-13T06:41:53;68.27;;;32.87;;
13607;SDS011;6875;50.852;5.672;2023-02-13T06:44:22;65.73;;;33.20;;
13607;SDS011;6875;50.852;5.672;2023-02-13T06:46:49;66.37;;;33.53;;
13607;SDS011;6875;50.852;5.672;2023-02-13T06:49:18;70.27;;;33.83;;
13607;SDS011;6875;50.852;5.672;2023-02-13T06:51:44;61.13;;;32.87;;
13607;SDS011;6875;50.852;5.672;2023-02-13T06:54:11;69.37;;;35.83;;
13607;SDS011;6875;50.852;5.672;2023-02-13T06:56:37;69.57;;;34.77;;
13607;SDS011;6875;50.852;5.672;2023-02-13T06:59:05;64.23;;;33.23;;
13607;SDS011;6875;50.852;5.672;2023-02-13T07:01:32;63.77;;;33.93;;
13607;SDS011;6875;50.852;5.672;2023-02-13T07:03:59;68.83;;;34.90;;
13607;SDS011;6875;50.852;5.672;2023-02-13T07:06:25;59.23;;;31.30;;
13607;SDS011;6875;50.852;5.672;2023-02-13T07:08:52;62.27;;;32.43;;
13607;SDS011;6875;50.852;5.672;2023-02-13T07:11:20;70.30;;;35.93;;
13607;SDS011;6875;50.852;5.672;2023-02-13T07:13:48;69.90;;;33.97;;
13607;SDS011;6875;50.852;5.672;2023-02-13T07:16:16;76.27;;;36.27;;
13607;SDS011;6875;50.852;5.672;2023-02-13T07:18:42;61.70;;;31.50;;
13607;SDS011;6875;50.852;5.672;2023-02-13T07:21:11;72.33;;;34.40;;
13607;SDS011;6875;50.852;5.672;2023-02-13T07:23:38;67.70;;;34.90;;
13607;SDS011;6875;50.852;5.672;2023-02-13T07:26:05;80.00;;;36.47;;
13607;SDS011;6875;50.852;5.672;2023-02-13T07:28:31;80.13;;;36.90;;
13607;SDS011;6875;50.852;5.672;2023-02-13T07:31:02;77.47;;;36.30;;
13607;SDS011;6875;50.852;5.672;2023-02-13T07:33:30;84.60;;;38.70;;
13607;SDS011;6875;50.852;5.672;2023-02-13T07:35:57;72.77;;;35.17;;
13607;SDS011;6875;50.852;5.672;2023-02-13T07:38:23;76.80;;;35.93;;
13607;SDS011;6875;50.852;5.672;2023-02-13T07:40:50;68.10;;;34.10;;
13607;SDS011;6875;50.852;5.672;2023-02-13T07:43:16;66.07;;;33.87;;
13607;SDS011;6875;50.852;5.672;2023-02-13T07:45:43;77.67;;;37.50;;
13607;SDS011;6875;50.852;5.672;2023-02-13T07:48:11;80.37;;;37.33;;
13607;SDS011;6875;50.852;5.672;2023-02-13T07:50:38;77.27;;;36.67;;
13607;SDS011;6875;50.852;5.672;2023-02-13T07:53:05;75.03;;;37.77;;
13607;SDS011;6875;50.852;5.672;2023-02-13T07:55:31;82.20;;;38.67;;
13607;SDS011;6875;50.852;5.672;2023-02-13T07:57:59;81.47;;;40.13;;
13607;SDS011;6875;50.852;5.672;2023-02-13T08:00:25;80.17;;;38.77;;
13607;SDS011;6875;50.852;5.672;2023-02-13T08:02:52;82.93;;;38.77;;
13607;SDS011;6875;50.852;5.672;2023-02-13T08:05:18;82.47;;;40.27;;
13607;SDS011;6875;50.852;5.672;2023-02-13T08:07:46;88.07;;;41.43;;
13607;SDS011;6875;50.852;5.672;2023-02-13T08:10:13;78.70;;;40.30;;
13607;SDS011;6875;50.852;5.672;2023-02-13T08:12:58;83.57;;;40.03;;
13607;SDS011;6875;50.852;5.672;2023-02-13T08:15:24;77.47;;;37.37;;
13607;SDS011;6875;50.852;5.672;2023-02-13T08:17:51;75.13;;;38.83;;
13607;SDS011;6875;50.852;5.672;2023-02-13T08:20:18;75.87;;;38.67;;
13607;SDS011;6875;50.852;5.672;2023-02-13T08:22:46;73.83;;;38.17;;
13607;SDS011;6875;50.852;5.672;2023-02-13T08:25:13;76.87;;;39.50;;
13607;SDS011;6875;50.852;5.672;2023-02-13T08:27:39;75.53;;;39.17;;
13607;SDS011;6875;50.852;5.672;2023-02-13T08:30:06;69.33;;;36.83;;
13607;SDS011;6875;50.852;5.672;2023-02-13T08:32:34;70.87;;;37.33;;
13607;SDS011;6875;50.852;5.672;2023-02-13T08:35:00;63.57;;;35.10;;
13607;SDS011;6875;50.852;5.672;2023-02-13T08:37:27;72.90;;;36.40;;
13607;SDS011;6875;50.852;5.672;2023-02-13T08:39:54;64.70;;;32.97;;
13607;SDS011;6875;50.852;5.672;2023-02-13T08:42:21;58.87;;;33.47;;
13607;SDS011;6875;50.852;5.672;2023-02-13T08:44:47;64.30;;;34.80;;
13607;SDS011;6875;50.852;5.672;2023-02-13T08:47:14;57.77;;;33.13;;
13607;SDS011;6875;50.852;5.672;2023-02-13T08:49:40;57.77;;;32.50;;
13607;SDS011;6875;50.852;5.672;2023-02-13T08:52:07;53.43;;;31.17;;
13607;SDS011;6875;50.852;5.672;2023-02-13T08:54:33;48.67;;;29.97;;
13607;SDS011;6875;50.852;5.672;2023-02-13T08:57:01;50.57;;;30.23;;
13607;SDS011;6875;50.852;5.672;2023-02-13T08:59:28;55.47;;;31.50;;
13607;SDS011;6875;50.852;5.672;2023-02-13T09:01:55;50.97;;;29.57;;
13607;SDS011;6875;50.852;5.672;2023-02-13T09:04:22;43.87;;;27.67;;
13607;SDS011;6875;50.852;5.672;2023-02-13T09:06:48;47.03;;;28.30;;
13607;SDS011;6875;50.852;5.672;2023-02-13T09:09:15;46.30;;;28.30;;
13607;SDS011;6875;50.852;5.672;2023-02-13T09:11:41;43.53;;;26.67;;
13607;SDS011;6875;50.852;5.672;2023-02-13T09:14:09;45.43;;;28.03;;
13607;SDS011;6875;50.852;5.672;2023-02-13T09:16:36;46.10;;;28.47;;
13607;SDS011;6875;50.852;5.672;2023-02-13T09:19:02;42.63;;;27.10;;
13607;SDS011;6875;50.852;5.672;2023-02-13T09:21:29;45.73;;;26.37;;
13607;SDS011;6875;50.852;5.672;2023-02-13T09:23:55;43.97;;;27.33;;
13607;SDS011;6875;50.852;5.672;2023-02-13T09:26:22;47.77;;;28.27;;
13607;SDS011;6875;50.852;5.672;2023-02-13T09:28:48;42.93;;;27.13;;
13607;SDS011;6875;50.852;5.672;2023-02-13T09:31:17;47.23;;;28.73;;
13607;SDS011;6875;50.852;5.672;2023-02-13T09:33:46;44.17;;;26.60;;
13607;SDS011;6875;50.852;5.672;2023-02-13T09:36:14;43.77;;;27.03;;
13607;SDS011;6875;50.852;5.672;2023-02-13T09:38:43;41.97;;;26.03;;
13607;SDS011;6875;50.852;5.672;2023-02-13T09:41:10;41.70;;;26.50;;
13607;SDS011;6875;50.852;5.672;2023-02-13T09:43:40;41.23;;;26.47;;
13607;SDS011;6875;50.852;5.672;2023-02-13T09:46:10;39.13;;;26.20;;
13607;SDS011;6875;50.852;5.672;2023-02-13T09:48:39;38.40;;;25.07;;
13607;SDS011;6875;50.852;5.672;2023-02-13T09:51:08;43.23;;;27.20;;
13607;SDS011;6875;50.852;5.672;2023-02-13T09:53:36;40.10;;;27.03;;
13607;SDS011;6875;50.852;5.672;2023-02-13T09:56:08;41.63;;;26.83;;
13607;SDS011;6875;50.852;5.672;2023-02-13T09:58:41;37.93;;;24.43;;
13607;SDS011;6875;50.852;5.672;2023-02-13T10:01:15;33.23;;;21.90;;
13607;SDS011;6875;50.852;5.672;2023-02-13T10:03:48;35.17;;;21.93;;
13607;SDS011;6875;50.852;5.672;2023-02-13T10:06:21;36.07;;;22.77;;
13607;SDS011;6875;50.852;5.672;2023-02-13T10:08:53;33.43;;;21.33;;
13607;SDS011;6875;50.852;5.672;2023-02-13T10:11:47;31.93;;;21.90;;
13607;SDS011;6875;50.852;5.672;2023-02-13T10:14:35;29.03;;;20.17;;
13607;SDS011;6875;50.852;5.672;2023-02-13T10:17:04;33.07;;;22.03;;
13607;SDS011;6875;50.852;5.672;2023-02-13T10:19:34;31.43;;;20.77;;
13607;SDS011;6875;50.852;5.672;2023-02-13T10:22:04;30.70;;;20.50;;
13607;SDS011;6875;50.852;5.672;2023-02-13T10:24:33;30.77;;;19.47;;
13607;SDS011;6875;50.852;5.672;2023-02-13T10:27:04;30.90;;;20.73;;
13607;SDS011;6875;50.852;5.672;2023-02-13T10:29:38;31.17;;;20.67;;
13607;SDS011;6875;50.852;5.672;2023-02-13T10:32:26;30.73;;;18.87;;
13607;SDS011;6875;50.852;5.672;2023-02-13T10:34:57;26.87;;;17.63;;
13607;SDS011;6875;50.852;5.672;2023-02-13T10:37:26;27.20;;;18.87;;
13607;SDS011;6875;50.852;5.672;2023-02-13T10:39:53;25.50;;;17.87;;
13607;SDS011;6875;50.852;5.672;2023-02-13T10:42:20;24.93;;;17.17;;
13607;SDS011;6875;50.852;5.672;2023-02-13T10:44:51;28.07;;;17.77;;
13607;SDS011;6875;50.852;5.672;2023-02-13T10:47:29;28.53;;;18.87;;
13607;SDS011;6875;50.852;5.672;2023-02-13T10:50:11;29.20;;;19.17;;
13607;SDS011;6875;50.852;5.672;2023-02-13T10:52:46;23.17;;;16.80;;
13607;SDS011;6875;50.852;5.672;2023-02-13T10:55:27;21.73;;;15.33;;
13607;SDS011;6875;50.852;5.672;2023-02-13T10:58:02;25.37;;;17.17;;
13607;SDS011;6875;50.852;5.672;2023-02-13T11:00:33;26.73;;;16.90;;
13607;SDS011;6875;50.852;5.672;2023-02-13T11:03:00;26.40;;;17.93;;
13607;SDS011;6875;50.852;5.672;2023-02-13T11:05:31;25.87;;;18.00;;
13607;SDS011;6875;50.852;5.672;2023-02-13T11:07:58;25.17;;;17.80;;
13607;SDS011;6875;50.852;5.672;2023-02-13T11:10:26;26.93;;;17.43;;
13607;SDS011;6875;50.852;5.672;2023-02-13T11:12:53;23.80;;;16.93;;
13607;SDS011;6875;50.852;5.672;2023-02-13T11:15:21;19.80;;;14.13;;
13607;SDS011;6875;50.852;5.672;2023-02-13T11:17:50;21.60;;;14.80;;
13607;SDS011;6875;50.852;5.672;2023-02-13T11:20:43;20.37;;;14.23;;
13607;SDS011;6875;50.852;5.672;2023-02-13T11:23:26;21.33;;;14.07;;
13607;SDS011;6875;50.852;5.672;2023-02-13T11:25:59;19.53;;;13.83;;
13607;SDS011;6875;50.852;5.672;2023-02-13T11:28:28;22.67;;;14.40;;
13607;SDS011;6875;50.852;5.672;2023-02-13T11:31:07;22.27;;;13.97;;
13607;SDS011;6875;50.852;5.672;2023-02-13T11:33:36;19.37;;;14.80;;
13607;SDS011;6875;50.852;5.672;2023-02-13T11:36:06;18.97;;;13.67;;
13607;SDS011;6875;50.852;5.672;2023-02-13T11:38:33;19.70;;;13.77;;
13607;SDS011;6875;50.852;5.672;2023-02-13T11:41:04;18.37;;;13.90;;
13607;SDS011;6875;50.852;5.672;2023-02-13T11:43:33;15.60;;;11.60;;
13607;SDS011;6875;50.852;5.672;2023-02-13T11:46:02;19.50;;;13.03;;
13607;SDS011;6875;50.852;5.672;2023-02-13T11:48:30;20.43;;;13.63;;
13607;SDS011;6875;50.852;5.672;2023-02-13T11:50:56;19.17;;;13.63;;
13607;SDS011;6875;50.852;5.672;2023-02-13T11:53:26;17.33;;;13.40;;
13607;SDS011;6875;50.852;5.672;2023-02-13T11:56:02;18.37;;;13.00;;
13607;SDS011;6875;50.852;5.672;2023-02-13T11:58:31;18.30;;;13.27;;
13607;SDS011;6875;50.852;5.672;2023-02-13T12:03:55;17.40;;;12.93;;
13607;SDS011;6875;50.852;5.672;2023-02-13T12:06:27;19.37;;;13.70;;
13607;SDS011;6875;50.852;5.672;2023-02-13T12:08:55;17.70;;;13.43;;
13607;SDS011;6875;50.852;5.672;2023-02-13T12:11:23;18.57;;;13.07;;
13607;SDS011;6875;50.852;5.672;2023-02-13T12:13:53;17.63;;;12.10;;
13607;SDS011;6875;50.852;5.672;2023-02-13T12:16:22;17.57;;;12.67;;
13607;SDS011;6875;50.852;5.672;2023-02-13T12:18:55;16.33;;;11.13;;
13607;SDS011;6875;50.852;5.672;2023-02-13T12:21:27;16.23;;;12.10;;
13607;SDS011;6875;50.852;5.672;2023-02-13T12:24:07;16.77;;;12.00;;
13607;SDS011;6875;50.852;5.672;2023-02-13T12:26:38;17.40;;;12.13;;
13607;SDS011;6875;50.852;5.672;2023-02-13T12:31:58;15.13;;;11.50;;
13607;SDS011;6875;50.852;5.672;2023-02-13T12:37:53;15.50;;;11.70;;
13607;SDS011;6875;50.852;5.672;2023-02-13T12:40:32;15.17;;;10.83;;
13607;SDS011;6875;50.852;5.672;2023-02-13T12:43:12;15.07;;;12.13;;
13607;SDS011;6875;50.852;5.672;2023-02-13T12:45:51;15.33;;;11.90;;
13607;SDS011;6875;50.852;5.672;2023-02-13T12:48:23;15.43;;;11.37;;
13607;SDS011;6875;50.852;5.672;2023-02-13T12:50:56;16.33;;;11.63;;
13607;SDS011;6875;50.852;5.672;2023-02-13T12:53:41;15.93;;;11.90;;
13607;SDS011;6875;50.852;5.672;2023-02-13T12:59:29;16.80;;;12.03;;
13607;SDS011;6875;50.852;5.672;2023-02-13T13:02:05;16.90;;;12.23;;
13607;SDS011;6875;50.852;5.672;2023-02-13T13:04:53;18.40;;;12.97;;
13607;SDS011;6875;50.852;5.672;2023-02-13T13:07:38;16.93;;;12.50;;
13607;SDS011;6875;50.852;5.672;2023-02-13T13:10:25;17.40;;;12.00;;
13607;SDS011;6875;50.852;5.672;2023-02-13T13:13:00;15.33;;;12.03;;
13607;SDS011;6875;50.852;5.672;2023-02-13T13:15:34;17.03;;;11.70;;
13607;SDS011;6875;50.852;5.672;2023-02-13T13:18:07;15.87;;;11.37;;
13607;SDS011;6875;50.852;5.672;2023-02-13T13:20:49;14.93;;;10.90;;
13607;SDS011;6875;50.852;5.672;2023-02-13T13:23:21;17.27;;;11.93;;
13607;SDS011;6875;50.852;5.672;2023-02-13T13:25:56;14.17;;;11.63;;
13607;SDS011;6875;50.852;5.672;2023-02-13T13:28:31;15.10;;;11.03;;
13607;SDS011;6875;50.852;5.672;2023-02-13T13:30:58;14.87;;;12.03;;
13607;SDS011;6875;50.852;5.672;2023-02-13T13:33:25;15.70;;;12.33;;
13607;SDS011;6875;50.852;5.672;2023-02-13T13:35:56;16.20;;;12.27;;
13607;SDS011;6875;50.852;5.672;2023-02-13T13:38:28;17.23;;;12.80;;
13607;SDS011;6875;50.852;5.672;2023-02-13T13:41:04;18.20;;;13.43;;
13607;SDS011;6875;50.852;5.672;2023-02-13T13:43:39;15.87;;;11.80;;
13607;SDS011;6875;50.852;5.672;2023-02-13T13:46:13;14.87;;;11.40;;
13607;SDS011;6875;50.852;5.672;2023-02-13T13:51:31;15.97;;;12.00;;
13607;SDS011;6875;50.852;5.672;2023-02-13T13:54:17;14.30;;;10.83;;
13607;SDS011;6875;50.852;5.672;2023-02-13T14:05:16;15.63;;;10.67;;
13607;SDS011;6875;50.852;5.672;2023-02-13T14:07:49;14.60;;;10.53;;
13607;SDS011;6875;50.852;5.672;2023-02-13T14:13:34;15.07;;;11.37;;
13607;SDS011;6875;50.852;5.672;2023-02-13T14:16:04;15.33;;;10.77;;
13607;SDS011;6875;50.852;5.672;2023-02-13T14:18:31;15.53;;;11.67;;
13607;SDS011;6875;50.852;5.672;2023-02-13T14:21:00;14.67;;;11.27;;
13607;SDS011;6875;50.852;5.672;2023-02-13T14:23:29;15.87;;;11.60;;
13607;SDS011;6875;50.852;5.672;2023-02-13T14:26:08;17.17;;;11.60;;
13607;SDS011;6875;50.852;5.672;2023-02-13T14:28:36;15.40;;;12.37;;
13607;SDS011;6875;50.852;5.672;2023-02-13T14:31:06;14.93;;;12.17;;
13607;SDS011;6875;50.852;5.672;2023-02-13T14:33:38;18.20;;;13.23;;
13607;SDS011;6875;50.852;5.672;2023-02-13T14:36:06;21.00;;;12.80;;
13607;SDS011;6875;50.852;5.672;2023-02-13T14:38:40;17.73;;;13.43;;
13607;SDS011;6875;50.852;5.672;2023-02-13T14:41:22;18.07;;;13.07;;
13607;SDS011;6875;50.852;5.672;2023-02-13T14:44:13;17.93;;;12.67;;
13607;SDS011;6875;50.852;5.672;2023-02-13T14:46:43;17.50;;;12.43;;
13607;SDS011;6875;50.852;5.672;2023-02-13T14:49:13;18.03;;;12.37;;
13607;SDS011;6875;50.852;5.672;2023-02-13T14:51:44;17.13;;;12.70;;
13607;SDS011;6875;50.852;5.672;2023-02-13T14:54:14;20.90;;;13.20;;
13607;SDS011;6875;50.852;5.672;2023-02-13T14:56:45;16.93;;;12.37;;
13607;SDS011;6875;50.852;5.672;2023-02-13T14:59:14;15.23;;;11.33;;
13607;SDS011;6875;50.852;5.672;2023-02-13T15:01:45;16.90;;;12.90;;
13607;SDS011;6875;50.852;5.672;2023-02-13T15:04:14;17.03;;;13.07;;
13607;SDS011;6875;50.852;5.672;2023-02-13T15:06:43;17.83;;;12.43;;
13607;SDS011;6875;50.852;5.672;2023-02-13T15:09:18;16.53;;;12.67;;
13607;SDS011;6875;50.852;5.672;2023-02-13T15:11:47;16.23;;;12.53;;
13607;SDS011;6875;50.852;5.672;2023-02-13T15:14:18;20.30;;;13.23;;
13607;SDS011;6875;50.852;5.672;2023-02-13T15:16:49;17.33;;;12.97;;
13607;SDS011;6875;50.852;5.672;2023-02-13T15:19:19;16.00;;;12.87;;
13607;SDS011;6875;50.852;5.672;2023-02-13T15:21:54;17.37;;;13.07;;
13607;SDS011;6875;50.852;5.672;2023-02-13T15:24:22;16.67;;;12.83;;
13607;SDS011;6875;50.852;5.672;2023-02-13T15:26:56;18.07;;;13.40;;
13607;SDS011;6875;50.852;5.672;2023-02-13T15:29:25;18.60;;;13.10;;